createdAt,value
2022-12-22T00:02:10.429Z,16.75
2022-12-22T00:05:03.896Z,12.67
2022-12-22T00:07:53.547Z,16.52
2022-12-22T00:10:40.900Z,14.05
2022-12-22T00:13:30.600Z,16.17
2022-12-22T00:16:18.113Z,12.28
2022-12-22T00:22:18.828Z,14.18
2022-12-22T00:25:06.689Z,13.32
2022-12-22T00:27:54.840Z,12.35
2022-12-22T00:30:43.315Z,11.88
2022-12-22T00:33:33.935Z,11.25
2022-12-22T00:36:23.176Z,17.40
2022-12-22T00:39:10.611Z,9.55
2022-12-22T00:41:58.621Z,11.68
2022-12-22T00:44:45.875Z,11.20
2022-12-22T00:47:45.068Z,9.13
2022-12-22T00:50:35.328Z,14.60
2022-12-22T00:53:24.644Z,11.25
2022-12-22T00:56:12.068Z,11.38
2022-12-22T00:58:59.310Z,11.53
2022-12-22T01:01:46.741Z,9.28
2022-12-22T01:04:34.170Z,11.08
2022-12-22T01:07:24.994Z,8.70
2022-12-22T01:10:13.349Z,11.85
2022-12-22T01:13:01.981Z,12.75
2022-12-22T01:15:50.515Z,8.50
2022-12-22T01:18:38.201Z,9.23
2022-12-22T01:21:25.869Z,11.22
2022-12-22T01:24:13.044Z,9.95
2022-12-22T01:27:00.557Z,7.90
2022-12-22T01:29:48.363Z,7.17
2022-12-22T01:32:35.675Z,14.73
2022-12-22T01:35:23.449Z,7.92
2022-12-22T01:38:11.178Z,8.50
2022-12-22T01:40:58.708Z,8.45
2022-12-22T01:43:47.002Z,10.53
2022-12-22T01:46:42.836Z,8.68
2022-12-22T01:49:39.597Z,11.20
2022-12-22T01:52:29.351Z,9.83
2022-12-22T01:55:19.880Z,7.95
2022-12-22T01:58:07.069Z,7.97
2022-12-22T02:00:54.613Z,7.75
2022-12-22T02:03:42.119Z,10.08
2022-12-22T02:06:33.370Z,9.73
2022-12-22T02:09:23.694Z,9.90
2022-12-22T02:12:20.096Z,7.03
2022-12-22T02:15:10.356Z,9.65
2022-12-22T02:18:03.599Z,10.30
2022-12-22T02:20:56.846Z,9.30
2022-12-22T02:23:48.021Z,8.25
2022-12-22T02:26:57.032Z,9.13
2022-12-22T02:29:50.042Z,9.63
2022-12-22T02:32:37.361Z,7.00
2022-12-22T02:35:34.065Z,8.38
2022-12-22T02:38:30.053Z,6.55
2022-12-22T02:41:44.511Z,10.03
2022-12-22T02:44:52.964Z,12.65
2022-12-22T02:47:49.104Z,9.25
2022-12-22T02:50:39.365Z,8.05
2022-12-22T02:53:29.181Z,8.45
2022-12-22T02:56:20.408Z,11.35
2022-12-22T02:59:08.118Z,11.53
2022-12-22T03:01:57.241Z,7.42
2022-12-22T03:04:45.083Z,10.35
2022-12-22T03:07:33.899Z,6.28
2022-12-22T03:10:21.324Z,8.50
2022-12-22T03:13:08.643Z,11.03
2022-12-22T03:15:56.421Z,7.20
2022-12-22T03:18:44.188Z,7.58
2022-12-22T03:21:32.221Z,7.10
2022-12-22T03:26:12.378Z,6.08
2022-12-22T03:28:41.941Z,7.70
2022-12-22T03:36:10.217Z,9.33
2022-12-22T03:38:39.634Z,7.95
2022-12-22T03:41:10.918Z,6.97
2022-12-22T03:43:58.479Z,7.70
2022-12-22T03:46:33.507Z,7.80
2022-12-22T03:49:11.900Z,6.80
2022-12-22T03:51:44.554Z,6.90
2022-12-22T03:54:19.737Z,4.87
2022-12-22T03:56:52.143Z,5.55
2022-12-22T03:59:22.700Z,7.40
2022-12-22T04:01:54.820Z,5.58
2022-12-22T04:04:26.673Z,6.20
2022-12-22T04:06:56.682Z,6.00
2022-12-22T04:09:27.671Z,8.40
2022-12-22T04:12:16.018Z,6.45
2022-12-22T04:14:45.452Z,6.45
2022-12-22T04:17:14.914Z,6.60
2022-12-22T04:19:44.378Z,9.98
2022-12-22T04:22:13.798Z,6.17
2022-12-22T04:24:43.236Z,6.30
2022-12-22T04:27:12.845Z,6.70
2022-12-22T04:29:42.287Z,7.92
2022-12-22T04:32:11.784Z,6.00
2022-12-22T04:34:41.736Z,7.60
2022-12-22T12:33:49.751Z,4.30
2022-12-22T12:36:25.326Z,5.62
2022-12-22T12:39:20.258Z,4.15
2022-12-22T12:42:09.399Z,5.07
2022-12-22T12:44:40.428Z,3.33
2022-12-22T12:47:25.389Z,3.42
2022-12-22T12:49:56.677Z,7.12
2022-12-22T12:52:43.726Z,5.23
2022-12-22T12:55:31.900Z,5.83
2022-12-22T12:58:01.907Z,7.33
2022-12-22T13:00:41.904Z,5.80
2022-12-22T13:03:30.739Z,8.00
2022-12-22T13:05:57.064Z,2.90
2022-12-22T13:08:32.121Z,3.35
2022-12-22T13:11:07.128Z,7.25
2022-12-22T13:13:39.909Z,3.55
2022-12-22T13:16:15.223Z,6.95
2022-12-22T13:18:51.090Z,10.20
2022-12-22T13:26:36.633Z,6.60
2022-12-22T13:29:18.600Z,6.78
2022-12-22T13:31:51.118Z,10.82
2022-12-22T13:35:20.201Z,5.05
2022-12-22T13:37:22.442Z,6.83
2022-12-22T13:40:24.110Z,5.10
2022-12-22T13:43:08.325Z,5.43
2022-12-22T13:45:53.135Z,5.53
2022-12-22T13:48:29.909Z,3.75
2022-12-22T13:51:02.505Z,4.28
2022-12-22T13:54:07.139Z,5.65
2022-12-22T13:56:09.523Z,3.00
2022-12-22T13:58:43.533Z,3.07
2022-12-22T14:01:17.997Z,2.35
2022-12-22T14:04:02.547Z,5.03
2022-12-22T14:06:31.032Z,4.08
2022-12-22T14:09:20.762Z,4.40
2022-12-22T14:11:59.056Z,5.97
2022-12-22T14:14:31.911Z,8.18
2022-12-22T14:17:01.853Z,6.03
2022-12-22T14:19:37.498Z,3.37
2022-12-22T14:22:13.353Z,6.22
2022-12-22T14:24:45.849Z,4.22
2022-12-22T14:29:55.770Z,2.98
2022-12-22T14:32:40.516Z,6.30
2022-12-22T14:35:25.628Z,4.30
2022-12-22T14:38:10.049Z,8.58
2022-12-22T14:40:42.091Z,3.72
2022-12-22T14:43:20.584Z,6.27
2022-12-22T14:45:52.451Z,4.37
2022-12-22T14:48:27.540Z,4.47
2022-12-22T14:50:58.014Z,3.83
2022-12-22T14:53:33.816Z,4.15
2022-12-22T14:56:03.702Z,4.45
2022-12-22T14:58:37.154Z,7.05
2022-12-22T15:01:21.996Z,4.85
2022-12-22T15:04:09.948Z,4.62
2022-12-22T15:06:43.716Z,7.08
2022-12-22T15:09:39.625Z,4.03
2022-12-22T15:11:59.227Z,3.57
2022-12-22T15:14:38.324Z,7.22
2022-12-22T15:17:03.973Z,3.95
2022-12-22T15:19:36.343Z,4.78
2022-12-22T15:22:10.032Z,2.80
2022-12-22T15:24:39.821Z,6.75
2022-12-22T15:27:13.537Z,5.75
2022-12-22T15:29:43.480Z,5.53
2022-12-22T15:32:15.851Z,5.78
2022-12-22T15:34:45.785Z,6.15
2022-12-22T15:37:15.225Z,4.33
2022-12-22T15:39:44.653Z,7.60
2022-12-22T15:42:14.180Z,6.42
2022-12-22T15:44:43.681Z,6.20
2022-12-22T15:47:13.933Z,5.03
2022-12-22T15:49:43.625Z,13.35
2022-12-22T15:52:14.888Z,18.90
2022-12-22T15:54:44.753Z,12.28
2022-12-22T15:57:14.625Z,11.35
2022-12-22T15:59:44.368Z,11.65
2022-12-22T16:02:14.997Z,13.25
2022-12-22T16:04:44.916Z,6.75
2022-12-22T16:07:14.498Z,9.88
2022-12-22T16:09:47.041Z,44.23
2022-12-22T16:12:18.886Z,47.88
2022-12-22T16:14:51.664Z,21.73
2022-12-22T16:17:26.366Z,13.43
2022-12-22T16:19:56.145Z,10.23
2022-12-22T16:22:34.247Z,8.15
2022-12-22T16:25:07.639Z,20.77
2022-12-22T16:27:40.158Z,6.58
2022-12-22T16:30:13.401Z,6.00
2022-12-22T16:35:16.628Z,6.15
2022-12-22T16:37:49.091Z,7.45
2022-12-22T16:40:20.525Z,7.67
2022-12-22T16:45:42.840Z,10.05
2022-12-22T16:48:21.482Z,13.37
2022-12-22T16:50:52.038Z,8.55
2022-12-22T16:53:21.429Z,4.70
2022-12-22T16:55:50.947Z,5.35
2022-12-22T16:58:21.418Z,6.35
2022-12-22T17:00:50.997Z,8.68
2022-12-22T17:03:28.857Z,6.55
2022-12-22T17:06:01.783Z,6.63
2022-12-22T17:08:34.658Z,5.87
2022-12-22T17:11:10.769Z,4.72
2022-12-22T17:13:39.433Z,3.65
2022-12-22T17:16:11.996Z,5.62
2022-12-22T17:18:42.029Z,3.27
2022-12-22T17:21:12.397Z,6.20
2022-12-22T17:23:48.036Z,4.87
2022-12-22T17:26:21.077Z,5.05
2022-12-22T17:31:23.232Z,3.70
2022-12-22T17:36:30.677Z,3.80
2022-12-22T17:39:00.842Z,8.77
2022-12-22T17:41:31.217Z,4.40
2022-12-22T17:44:00.704Z,7.08
2022-12-22T17:46:30.371Z,5.12
2022-12-22T17:49:00.474Z,4.10
2022-12-22T17:51:30.783Z,4.05
2022-12-22T17:54:01.538Z,5.07
2022-12-22T17:56:32.360Z,8.33
2022-12-22T17:59:01.865Z,7.12
2022-12-22T18:01:34.040Z,11.70
2022-12-22T18:04:03.859Z,14.80
2022-12-22T18:06:35.920Z,15.48
2022-12-22T18:09:07.813Z,13.90
2022-12-22T18:14:09.753Z,17.85
2022-12-22T18:16:39.959Z,15.08
2022-12-22T18:19:09.490Z,17.15
2022-12-22T18:21:39.335Z,31.55
2022-12-22T18:24:17.490Z,55.53
2022-12-22T18:26:47.969Z,57.83
2022-12-22T18:29:18.243Z,42.88
2022-12-22T18:31:48.154Z,24.90
2022-12-22T18:34:17.646Z,17.82
2022-12-22T18:36:48.043Z,17.55
2022-12-22T18:39:20.464Z,14.20
2022-12-22T18:41:49.957Z,15.00
2022-12-22T18:44:20.747Z,16.90
2022-12-22T18:46:50.830Z,13.08
2022-12-22T18:49:21.346Z,10.88
2022-12-22T18:51:51.088Z,10.03
2022-12-22T18:54:23.603Z,11.85
2022-12-22T18:56:53.580Z,12.98
2022-12-22T18:59:28.034Z,11.00
2022-12-22T19:02:02.276Z,13.85
2022-12-22T19:04:32.171Z,26.00
2022-12-22T19:07:01.624Z,14.53
2022-12-22T19:09:32.057Z,16.62
2022-12-22T19:12:01.511Z,13.73
2022-12-22T19:14:33.033Z,15.18
2022-12-22T19:17:02.601Z,13.88
2022-12-22T19:19:32.282Z,13.03
2022-12-22T19:22:01.708Z,14.87
2022-12-22T19:24:31.159Z,14.35
2022-12-22T19:27:01.891Z,18.80
2022-12-22T19:29:31.405Z,19.00
2022-12-22T19:32:00.941Z,20.40
2022-12-22T19:34:31.070Z,17.65
2022-12-22T19:37:00.523Z,16.87
2022-12-22T19:39:30.174Z,16.82
2022-12-22T19:41:59.668Z,20.17
2022-12-22T19:44:31.709Z,22.48
2022-12-22T19:47:02.667Z,18.63
2022-12-22T19:49:32.229Z,18.23
2022-12-22T19:52:01.664Z,23.65
2022-12-22T19:54:33.097Z,19.15
2022-12-22T19:57:04.597Z,20.52
2022-12-22T19:59:46.048Z,19.17
2022-12-22T20:04:46.486Z,19.37
2022-12-22T20:07:21.431Z,19.02
2022-12-22T20:09:51.245Z,21.20
2022-12-22T20:12:27.043Z,18.80
2022-12-22T20:14:56.976Z,17.48
2022-12-22T20:17:26.645Z,19.17
2022-12-22T20:19:56.086Z,21.75
2022-12-22T20:22:26.113Z,24.20
2022-12-22T20:24:55.627Z,26.17
2022-12-22T20:27:31.252Z,28.15
2022-12-22T20:30:01.377Z,39.65
2022-12-22T20:32:34.700Z,39.88
2022-12-22T20:35:04.888Z,35.98
2022-12-22T20:37:34.352Z,40.55
2022-12-22T20:40:06.363Z,36.30
2022-12-22T20:42:35.920Z,29.10
2022-12-22T20:45:05.488Z,29.65
2022-12-22T20:47:36.547Z,28.47
2022-12-22T20:50:25.577Z,26.73
2022-12-22T20:52:56.630Z,21.68
2022-12-22T20:55:28.809Z,28.23
2022-12-22T20:58:00.793Z,32.57
2022-12-22T21:00:30.687Z,30.77
2022-12-22T21:03:00.490Z,42.75
2022-12-22T21:05:31.304Z,31.37
2022-12-22T21:08:00.742Z,27.20
2022-12-22T21:10:31.190Z,29.82
2022-12-22T21:13:00.625Z,25.20
2022-12-22T21:15:31.599Z,23.85
2022-12-22T21:18:01.113Z,25.05
2022-12-22T21:20:32.439Z,21.62
2022-12-22T21:23:01.885Z,25.77
2022-12-22T21:25:31.316Z,30.23
2022-12-22T21:28:03.832Z,28.50
2022-12-22T21:30:33.330Z,31.40
2022-12-22T21:33:03.341Z,27.80
2022-12-22T21:35:38.176Z,23.98
2022-12-22T21:38:07.757Z,27.35
2022-12-22T21:40:37.187Z,22.48
2022-12-22T21:43:07.215Z,26.80
2022-12-22T21:45:42.684Z,22.60
2022-12-22T21:48:15.849Z,27.13
2022-12-22T21:50:46.001Z,22.65
2022-12-22T21:53:21.746Z,21.62
2022-12-22T21:55:46.649Z,20.65
2022-12-22T21:58:16.119Z,15.10
2022-12-22T22:00:48.614Z,14.40
2022-12-22T22:03:18.932Z,12.25
2022-12-22T22:05:48.983Z,13.18
2022-12-22T22:08:18.458Z,7.97
2022-12-22T22:10:47.894Z,10.55
2022-12-22T22:13:17.335Z,9.13
2022-12-22T22:15:47.243Z,10.15
2022-12-22T22:18:21.385Z,6.67
2022-12-22T22:20:51.492Z,6.35
2022-12-22T22:23:20.924Z,9.73
2022-12-22T22:25:53.775Z,10.48
2022-12-22T22:30:51.812Z,9.58
2022-12-22T22:33:21.578Z,7.47
2022-12-22T22:35:58.065Z,6.33
2022-12-22T22:38:32.797Z,9.60
2022-12-22T22:41:02.776Z,10.80
2022-12-22T22:43:41.340Z,8.78
2022-12-22T22:46:08.478Z,8.73
2022-12-22T22:48:38.013Z,10.32
2022-12-22T22:51:14.553Z,11.48
2022-12-22T22:53:46.183Z,11.45
2022-12-22T22:56:16.153Z,8.15
2022-12-22T22:58:45.594Z,9.10
2022-12-22T23:01:15.470Z,9.20
2022-12-22T23:03:45.275Z,9.50
2022-12-22T23:06:15.957Z,10.15
2022-12-22T23:08:47.082Z,8.25
2022-12-22T23:11:17.829Z,8.18
2022-12-22T23:13:47.473Z,8.75
2022-12-22T23:16:18.882Z,9.08
2022-12-22T23:18:49.133Z,9.08
2022-12-22T23:21:18.594Z,7.80
2022-12-22T23:23:48.081Z,11.80
2022-12-22T23:26:17.505Z,10.78
2022-12-22T23:28:47.080Z,9.20
2022-12-22T23:31:17.132Z,8.88
2022-12-22T23:33:46.578Z,6.60
2022-12-22T23:36:16.561Z,9.23
2022-12-22T23:38:46.696Z,10.20
2022-12-22T23:41:16.131Z,9.70
2022-12-22T23:43:46.580Z,8.70
2022-12-22T23:46:18.158Z,11.33
2022-12-22T23:48:53.727Z,7.53
2022-12-22T23:51:25.500Z,8.53
2022-12-22T23:53:56.433Z,11.73
2022-12-22T23:56:26.616Z,16.80
2022-12-22T23:58:56.692Z,13.38
